sensor_id;sensor_type;location;lat;lon;timestamp;noise_LAeq;noise_LA_min;noise_LA_max;noise_LA01;noise_LA95
46746;Laerm;32493;50.514;9.678;2022-11-15T00:00:55;41.20;39.65;42.54;;
46746;Laerm;32493;50.514;9.678;2022-11-15T00:03:22;41.23;40.05;42.51;;
46746;Laerm;32493;50.514;9.678;2022-11-15T00:05:47;41.23;39.84;42.77;;
46746;Laerm;32493;50.514;9.678;2022-11-15T00:08:11;41.32;40.03;42.68;;
46746;Laerm;32493;50.514;9.678;2022-11-15T00:10:36;41.35;39.99;42.63;;
46746;Laerm;32493;50.514;9.678;2022-11-15T00:12:59;41.30;39.65;42.49;;
46746;Laerm;32493;50.514;9.678;2022-11-15T00:15:23;41.16;39.75;42.32;;
46746;Laerm;32493;50.514;9.678;2022-11-15T00:17:51;41.05;39.70;42.23;;
46746;Laerm;32493;50.514;9.678;2022-11-15T00:20:16;41.14;39.70;42.62;;
46746;Laerm;32493;50.514;9.678;2022-11-15T00:22:40;41.23;39.96;42.42;;
46746;Laerm;32493;50.514;9.678;2022-11-15T00:25:05;41.25;39.92;42.67;;
46746;Laerm;32493;50.514;9.678;2022-11-15T00:27:29;41.40;40.06;42.77;;
46746;Laerm;32493;50.514;9.678;2022-11-15T00:29:53;41.48;40.01;42.82;;
46746;Laerm;32493;50.514;9.678;2022-11-15T00:32:17;41.61;40.27;43.04;;
46746;Laerm;32493;50.514;9.678;2022-11-15T00:34:43;41.69;40.17;42.90;;
46746;Laerm;32493;50.514;9.678;2022-11-15T00:37:07;41.76;40.55;42.95;;
46746;Laerm;32493;50.514;9.678;2022-11-15T00:39:31;41.79;40.24;43.10;;
46746;Laerm;32493;50.514;9.678;2022-11-15T00:41:55;41.83;40.56;43.11;;
46746;Laerm;32493;50.514;9.678;2022-11-15T00:44:18;41.84;40.66;43.26;;
46746;Laerm;32493;50.514;9.678;2022-11-15T00:46:42;41.85;40.43;43.20;;
46746;Laerm;32493;50.514;9.678;2022-11-15T00:49:06;41.82;40.44;43.20;;
46746;Laerm;32493;50.514;9.678;2022-11-15T00:51:33;41.80;40.50;43.03;;
46746;Laerm;32493;50.514;9.678;2022-11-15T00:53:57;41.91;40.59;44.91;;
46746;Laerm;32493;50.514;9.678;2022-11-15T00:56:21;42.00;40.61;43.34;;
46746;Laerm;32493;50.514;9.678;2022-11-15T00:58:46;42.04;40.60;43.33;;
46746;Laerm;32493;50.514;9.678;2022-11-15T01:01:12;42.06;40.61;43.20;;
46746;Laerm;32493;50.514;9.678;2022-11-15T01:03:38;42.07;40.80;43.56;;
46746;Laerm;32493;50.514;9.678;2022-11-15T01:06:03;42.08;40.68;43.29;;
46746;Laerm;32493;50.514;9.678;2022-11-15T01:08:29;41.98;40.62;43.29;;
46746;Laerm;32493;50.514;9.678;2022-11-15T01:11:00;41.95;40.65;43.32;;
46746;Laerm;32493;50.514;9.678;2022-11-15T01:13:23;41.95;40.51;43.06;;
46746;Laerm;32493;50.514;9.678;2022-11-15T01:15:48;41.92;40.69;43.09;;
46746;Laerm;32493;50.514;9.678;2022-11-15T01:18:12;41.90;40.61;43.04;;
46746;Laerm;32493;50.514;9.678;2022-11-15T01:20:40;41.88;40.39;43.18;;
46746;Laerm;32493;50.514;9.678;2022-11-15T01:23:05;41.86;40.46;43.19;;
46746;Laerm;32493;50.514;9.678;2022-11-15T01:25:31;41.91;40.64;43.32;;
46746;Laerm;32493;50.514;9.678;2022-11-15T01:27:55;42.02;40.64;43.34;;
46746;Laerm;32493;50.514;9.678;2022-11-15T01:30:19;42.09;40.69;43.32;;
46746;Laerm;32493;50.514;9.678;2022-11-15T01:32:44;42.13;40.88;43.33;;
46746;Laerm;32493;50.514;9.678;2022-11-15T01:35:08;42.16;40.65;44.87;;
46746;Laerm;32493;50.514;9.678;2022-11-15T01:37:32;42.22;40.84;43.60;;
46746;Laerm;32493;50.514;9.678;2022-11-15T01:39:58;42.23;40.94;44.06;;
46746;Laerm;32493;50.514;9.678;2022-11-15T01:42:25;42.27;41.02;43.63;;
46746;Laerm;32493;50.514;9.678;2022-11-15T01:44:50;42.26;40.81;43.80;;
46746;Laerm;32493;50.514;9.678;2022-11-15T01:47:17;42.24;41.00;43.71;;
46746;Laerm;32493;50.514;9.678;2022-11-15T01:49:51;42.13;40.73;43.56;;
46746;Laerm;32493;50.514;9.678;2022-11-15T01:52:19;42.02;40.63;43.47;;
46746;Laerm;32493;50.514;9.678;2022-11-15T01:54:43;41.90;40.25;43.12;;
46746;Laerm;32493;50.514;9.678;2022-11-15T01:57:10;41.89;40.37;43.29;;
46746;Laerm;32493;50.514;9.678;2022-11-15T01:59:39;41.94;40.44;43.08;;
46746;Laerm;32493;50.514;9.678;2022-11-15T02:02:03;41.94;40.79;43.19;;
46746;Laerm;32493;50.514;9.678;2022-11-15T02:04:29;41.94;40.37;43.27;;
46746;Laerm;32493;50.514;9.678;2022-11-15T02:06:55;41.91;40.61;43.36;;
46746;Laerm;32493;50.514;9.678;2022-11-15T02:09:19;41.93;40.55;43.28;;
46746;Laerm;32493;50.514;9.678;2022-11-15T02:11:44;42.00;40.53;43.27;;
46746;Laerm;32493;50.514;9.678;2022-11-15T02:14:10;42.10;40.46;43.33;;
46746;Laerm;32493;50.514;9.678;2022-11-15T02:16:47;42.17;40.75;43.39;;
46746;Laerm;32493;50.514;9.678;2022-11-15T02:19:31;42.12;40.73;43.51;;
46746;Laerm;32493;50.514;9.678;2022-11-15T02:22:14;42.08;40.72;43.46;;
46746;Laerm;32493;50.514;9.678;2022-11-15T02:25:03;42.06;40.72;43.33;;
46746;Laerm;32493;50.514;9.678;2022-11-15T02:27:58;41.97;40.62;43.18;;
46746;Laerm;32493;50.514;9.678;2022-11-15T02:30:35;41.92;40.56;43.12;;
46746;Laerm;32493;50.514;9.678;2022-11-15T02:33:08;41.94;40.54;43.36;;
46746;Laerm;32493;50.514;9.678;2022-11-15T02:35:43;42.04;40.75;43.30;;
46746;Laerm;32493;50.514;9.678;2022-11-15T02:38:18;42.10;40.78;43.55;;
46746;Laerm;32493;50.514;9.678;2022-11-15T02:40:53;42.12;40.96;43.40;;
46746;Laerm;32493;50.514;9.678;2022-11-15T02:43:25;42.17;40.92;43.40;;
46746;Laerm;32493;50.514;9.678;2022-11-15T02:46:14;42.27;40.99;43.60;;
46746;Laerm;32493;50.514;9.678;2022-11-15T02:48:41;42.32;40.86;43.46;;
46746;Laerm;32493;50.514;9.678;2022-11-15T02:51:07;42.30;40.96;43.53;;
46746;Laerm;32493;50.514;9.678;2022-11-15T02:53:30;42.32;41.08;43.53;;
46746;Laerm;32493;50.514;9.678;2022-11-15T02:55:56;42.35;41.00;43.65;;
46746;Laerm;32493;50.514;9.678;2022-11-15T02:58:57;42.34;40.81;43.61;;
46746;Laerm;32493;50.514;9.678;2022-11-15T03:01:38;42.33;40.89;43.47;;
46746;Laerm;32493;50.514;9.678;2022-11-15T03:04:17;42.37;41.13;43.78;;
46746;Laerm;32493;50.514;9.678;2022-11-15T03:06:51;42.39;41.03;43.81;;
46746;Laerm;32493;50.514;9.678;2022-11-15T03:09:24;42.41;41.15;43.80;;
46746;Laerm;32493;50.514;9.678;2022-11-15T03:11:59;42.42;41.01;43.62;;
46746;Laerm;32493;50.514;9.678;2022-11-15T03:14:30;42.43;41.15;43.68;;
46746;Laerm;32493;50.514;9.678;2022-11-15T03:17:06;42.44;41.00;43.67;;
46746;Laerm;32493;50.514;9.678;2022-11-15T03:19:38;42.44;41.14;43.66;;
46746;Laerm;32493;50.514;9.678;2022-11-15T03:22:05;42.43;41.24;43.75;;
46746;Laerm;32493;50.514;9.678;2022-11-15T03:24:33;42.44;41.08;43.89;;
46746;Laerm;32493;50.514;9.678;2022-11-15T03:26:59;42.46;41.23;43.57;;
46746;Laerm;32493;50.514;9.678;2022-11-15T03:29:29;42.47;41.05;43.75;;
46746;Laerm;32493;50.514;9.678;2022-11-15T03:32:02;42.45;41.20;43.68;;
46746;Laerm;32493;50.514;9.678;2022-11-15T03:34:31;42.43;41.01;43.77;;
46746;Laerm;32493;50.514;9.678;2022-11-15T03:36:57;42.40;41.20;43.72;;
46746;Laerm;32493;50.514;9.678;2022-11-15T03:39:22;42.36;41.09;43.66;;
46746;Laerm;32493;50.514;9.678;2022-11-15T03:41:50;42.35;40.96;43.63;;
46746;Laerm;32493;50.514;9.678;2022-11-15T03:44:31;42.36;41.02;43.59;;
46746;Laerm;32493;50.514;9.678;2022-11-15T03:47:06;42.30;41.03;43.60;;
46746;Laerm;32493;50.514;9.678;2022-11-15T03:49:33;42.38;40.80;43.76;;
46746;Laerm;32493;50.514;9.678;2022-11-15T03:51:58;42.37;41.06;43.63;;
46746;Laerm;32493;50.514;9.678;2022-11-15T03:54:23;42.43;41.09;43.51;;
46746;Laerm;32493;50.514;9.678;2022-11-15T03:56:46;42.44;40.99;43.65;;
46746;Laerm;32493;50.514;9.678;2022-11-15T03:59:10;42.46;40.99;43.77;;
46746;Laerm;32493;50.514;9.678;2022-11-15T04:01:34;42.47;41.30;43.75;;
46746;Laerm;32493;50.514;9.678;2022-11-15T04:04:01;42.46;40.98;43.69;;
46746;Laerm;32493;50.514;9.678;2022-11-15T04:06:25;42.48;41.17;43.66;;
46746;Laerm;32493;50.514;9.678;2022-11-15T04:08:49;42.45;41.16;43.52;;
46746;Laerm;32493;50.514;9.678;2022-11-15T04:11:13;42.47;41.12;43.59;;
46746;Laerm;32493;50.514;9.678;2022-11-15T04:13:37;42.46;41.15;44.58;;
46746;Laerm;32493;50.514;9.678;2022-11-15T04:16:01;42.46;41.18;43.62;;
46746;Laerm;32493;50.514;9.678;2022-11-15T04:18:25;42.46;40.97;43.70;;
46746;Laerm;32493;50.514;9.678;2022-11-15T04:20:51;42.47;41.06;43.86;;
46746;Laerm;32493;50.514;9.678;2022-11-15T04:23:27;42.47;41.19;43.75;;
46746;Laerm;32493;50.514;9.678;2022-11-15T04:26:05;42.49;41.29;43.99;;
46746;Laerm;32493;50.514;9.678;2022-11-15T04:28:30;42.48;41.04;43.91;;
46746;Laerm;32493;50.514;9.678;2022-11-15T04:30:54;42.45;41.20;43.66;;
46746;Laerm;32493;50.514;9.678;2022-11-15T04:33:18;42.44;41.17;46.39;;
46746;Laerm;32493;50.514;9.678;2022-11-15T04:35:43;42.44;41.01;43.65;;
46746;Laerm;32493;50.514;9.678;2022-11-15T04:38:29;42.43;40.95;43.59;;
46746;Laerm;32493;50.514;9.678;2022-11-15T04:40:53;42.45;41.07;45.61;;
46746;Laerm;32493;50.514;9.678;2022-11-15T04:43:17;42.64;41.23;48.57;;
46746;Laerm;32493;50.514;9.678;2022-11-15T04:45:41;42.66;41.15;44.53;;
46746;Laerm;32493;50.514;9.678;2022-11-15T04:48:05;42.68;41.50;45.97;;
46746;Laerm;32493;50.514;9.678;2022-11-15T04:50:29;42.70;41.28;45.24;;
46746;Laerm;32493;50.514;9.678;2022-11-15T04:52:54;42.60;40.93;45.17;;
46746;Laerm;32493;50.514;9.678;2022-11-15T04:55:21;42.58;41.23;44.95;;
46746;Laerm;32493;50.514;9.678;2022-11-15T04:57:45;42.53;41.31;44.43;;
46746;Laerm;32493;50.514;9.678;2022-11-15T05:00:13;42.48;41.05;44.47;;
46746;Laerm;32493;50.514;9.678;2022-11-15T05:02:37;42.49;41.12;43.91;;
46746;Laerm;32493;50.514;9.678;2022-11-15T05:05:14;42.56;41.03;46.47;;
46746;Laerm;32493;50.514;9.678;2022-11-15T05:07:38;42.78;41.23;48.69;;
46746;Laerm;32493;50.514;9.678;2022-11-15T05:10:02;42.63;41.25;45.24;;
46746;Laerm;32493;50.514;9.678;2022-11-15T05:12:28;42.55;41.25;48.55;;
46746;Laerm;32493;50.514;9.678;2022-11-15T05:14:52;42.49;41.00;43.71;;
46746;Laerm;32493;50.514;9.678;2022-11-15T05:17:16;42.49;41.28;43.93;;
46746;Laerm;32493;50.514;9.678;2022-11-15T05:19:40;42.42;41.21;43.94;;
46746;Laerm;32493;50.514;9.678;2022-11-15T05:22:05;42.45;41.15;43.79;;
46746;Laerm;32493;50.514;9.678;2022-11-15T05:24:28;42.45;41.00;46.06;;
46746;Laerm;32493;50.514;9.678;2022-11-15T05:26:52;42.46;41.14;43.59;;
46746;Laerm;32493;50.514;9.678;2022-11-15T05:29:18;42.53;41.27;43.71;;
46746;Laerm;32493;50.514;9.678;2022-11-15T05:31:42;42.47;41.26;43.76;;
46746;Laerm;32493;50.514;9.678;2022-11-15T05:34:06;42.48;41.33;43.89;;
46746;Laerm;32493;50.514;9.678;2022-11-15T05:36:35;42.45;41.30;44.07;;
46746;Laerm;32493;50.514;9.678;2022-11-15T05:38:59;42.39;41.07;44.10;;
46746;Laerm;32493;50.514;9.678;2022-11-15T05:41:30;42.41;40.87;43.64;;
46746;Laerm;32493;50.514;9.678;2022-11-15T05:43:56;42.47;41.16;48.04;;
46746;Laerm;32493;50.514;9.678;2022-11-15T05:46:23;42.60;41.25;44.43;;
46746;Laerm;32493;50.514;9.678;2022-11-15T05:48:50;42.53;41.00;44.66;;
46746;Laerm;32493;50.514;9.678;2022-11-15T05:51:15;42.46;41.11;44.49;;
46746;Laerm;32493;50.514;9.678;2022-11-15T05:53:40;42.52;40.98;44.35;;
46746;Laerm;32493;50.514;9.678;2022-11-15T05:56:05;42.51;41.14;44.48;;
46746;Laerm;32493;50.514;9.678;2022-11-15T05:58:31;42.44;40.94;44.15;;
46746;Laerm;32493;50.514;9.678;2022-11-15T06:00:55;42.45;41.17;46.11;;
46746;Laerm;32493;50.514;9.678;2022-11-15T06:03:21;42.51;41.06;44.00;;
46746;Laerm;32493;50.514;9.678;2022-11-15T06:05:45;42.45;40.97;44.86;;
46746;Laerm;32493;50.514;9.678;2022-11-15T06:08:09;42.46;41.21;46.94;;
46746;Laerm;32493;50.514;9.678;2022-11-15T06:10:33;42.51;40.77;44.92;;
46746;Laerm;32493;50.514;9.678;2022-11-15T06:12:58;42.47;41.20;43.61;;
46746;Laerm;32493;50.514;9.678;2022-11-15T06:15:22;42.48;41.19;43.83;;
46746;Laerm;32493;50.514;9.678;2022-11-15T06:17:46;42.52;41.09;43.74;;
46746;Laerm;32493;50.514;9.678;2022-11-15T06:20:14;42.53;41.35;43.91;;
46746;Laerm;32493;50.514;9.678;2022-11-15T06:22:39;42.50;41.13;43.85;;
46746;Laerm;32493;50.514;9.678;2022-11-15T06:25:04;42.48;41.20;43.99;;
46746;Laerm;32493;50.514;9.678;2022-11-15T06:27:27;42.48;41.31;43.73;;
46746;Laerm;32493;50.514;9.678;2022-11-15T06:29:51;42.50;41.16;43.64;;
46746;Laerm;32493;50.514;9.678;2022-11-15T06:32:15;42.50;41.23;43.58;;
46746;Laerm;32493;50.514;9.678;2022-11-15T06:34:39;42.48;41.26;43.55;;
46746;Laerm;32493;50.514;9.678;2022-11-15T06:37:05;42.50;41.25;43.59;;
46746;Laerm;32493;50.514;9.678;2022-11-15T06:39:29;42.50;41.24;43.56;;
46746;Laerm;32493;50.514;9.678;2022-11-15T06:41:53;42.50;41.11;43.62;;
46746;Laerm;32493;50.514;9.678;2022-11-15T06:44:18;42.50;41.21;43.83;;
46746;Laerm;32493;50.514;9.678;2022-11-15T06:46:42;42.49;41.08;43.54;;
46746;Laerm;32493;50.514;9.678;2022-11-15T06:49:05;42.49;41.06;43.72;;
46746;Laerm;32493;50.514;9.678;2022-11-15T06:51:30;42.49;41.21;43.78;;
46746;Laerm;32493;50.514;9.678;2022-11-15T06:53:56;42.50;41.30;43.74;;
46746;Laerm;32493;50.514;9.678;2022-11-15T06:56:20;42.51;41.28;43.92;;
46746;Laerm;32493;50.514;9.678;2022-11-15T06:58:43;42.48;41.18;43.63;;
46746;Laerm;32493;50.514;9.678;2022-11-15T07:01:10;42.47;41.19;43.56;;
46746;Laerm;32493;50.514;9.678;2022-11-15T07:03:35;42.46;41.24;43.58;;
46746;Laerm;32493;50.514;9.678;2022-11-15T07:05:58;42.46;41.10;43.69;;
46746;Laerm;32493;50.514;9.678;2022-11-15T07:08:28;42.46;41.28;43.77;;
46746;Laerm;32493;50.514;9.678;2022-11-15T07:10:57;42.45;41.28;43.60;;
46746;Laerm;32493;50.514;9.678;2022-11-15T07:13:24;42.49;41.12;44.19;;
46746;Laerm;32493;50.514;9.678;2022-11-15T07:15:49;42.47;41.04;44.34;;
46746;Laerm;32493;50.514;9.678;2022-11-15T07:18:13;42.47;41.31;43.70;;
46746;Laerm;32493;50.514;9.678;2022-11-15T07:20:37;42.48;41.11;43.87;;
46746;Laerm;32493;50.514;9.678;2022-11-15T07:23:02;42.50;41.12;43.66;;
46746;Laerm;32493;50.514;9.678;2022-11-15T07:25:26;42.50;41.26;44.51;;
46746;Laerm;32493;50.514;9.678;2022-11-15T07:27:58;42.51;41.31;44.15;;
46746;Laerm;32493;50.514;9.678;2022-11-15T07:30:22;42.50;41.15;44.95;;
46746;Laerm;32493;50.514;9.678;2022-11-15T07:32:46;42.50;41.27;43.66;;
46746;Laerm;32493;50.514;9.678;2022-11-15T07:35:10;42.49;41.24;43.84;;
46746;Laerm;32493;50.514;9.678;2022-11-15T07:37:34;42.47;41.08;43.89;;
46746;Laerm;32493;50.514;9.678;2022-11-15T07:39:58;42.48;41.16;43.86;;
46746;Laerm;32493;50.514;9.678;2022-11-15T07:42:22;42.50;41.34;45.15;;
46746;Laerm;32493;50.514;9.678;2022-11-15T07:45:02;42.55;41.23;44.46;;
46746;Laerm;32493;50.514;9.678;2022-11-15T07:47:28;42.48;41.29;43.67;;
46746;Laerm;32493;50.514;9.678;2022-11-15T07:49:51;42.48;41.10;44.21;;
46746;Laerm;32493;50.514;9.678;2022-11-15T07:52:15;42.50;41.01;43.73;;
46746;Laerm;32493;50.514;9.678;2022-11-15T07:54:39;42.53;41.45;43.68;;
46746;Laerm;32493;50.514;9.678;2022-11-15T07:57:03;42.52;41.08;43.68;;
46746;Laerm;32493;50.514;9.678;2022-11-15T07:59:28;42.51;41.30;44.01;;
46746;Laerm;32493;50.514;9.678;2022-11-15T08:01:54;42.50;41.20;43.75;;
46746;Laerm;32493;50.514;9.678;2022-11-15T08:04:17;42.52;41.25;43.73;;
46746;Laerm;32493;50.514;9.678;2022-11-15T08:06:41;42.50;41.24;44.01;;
46746;Laerm;32493;50.514;9.678;2022-11-15T08:09:05;42.51;41.21;43.86;;
46746;Laerm;32493;50.514;9.678;2022-11-15T08:11:29;42.52;41.27;43.73;;
46746;Laerm;32493;50.514;9.678;2022-11-15T08:13:53;42.54;41.01;43.91;;
46746;Laerm;32493;50.514;9.678;2022-11-15T08:16:17;42.49;41.26;43.70;;
46746;Laerm;32493;50.514;9.678;2022-11-15T08:18:43;42.53;41.15;43.93;;
46746;Laerm;32493;50.514;9.678;2022-11-15T08:21:13;42.59;41.34;46.47;;
46746;Laerm;32493;50.514;9.678;2022-11-15T09:43:05;40.87;38.62;46.71;;
46746;Laerm;32493;50.514;9.678;2022-11-15T09:45:37;40.26;38.55;45.15;;
46746;Laerm;32493;50.514;9.678;2022-11-15T09:48:35;39.82;38.28;43.94;;
46746;Laerm;32493;50.514;9.678;2022-11-15T09:50:56;39.72;38.34;41.57;;
46746;Laerm;32493;50.514;9.678;2022-11-15T09:53:04;39.55;38.07;40.83;;
46746;Laerm;32493;50.514;9.678;2022-11-15T09:55:11;39.57;38.26;42.96;;
46746;Laerm;32493;50.514;9.678;2022-11-15T09:57:32;39.68;38.31;45.17;;
46746;Laerm;32493;50.514;9.678;2022-11-15T09:59:59;39.62;38.23;43.22;;
46746;Laerm;32493;50.514;9.678;2022-11-15T10:02:50;39.62;38.03;41.03;;
46746;Laerm;32493;50.514;9.678;2022-11-15T10:05:00;39.66;38.20;43.07;;
46746;Laerm;32493;50.514;9.678;2022-11-15T10:07:16;39.66;38.42;41.34;;
46746;Laerm;32493;50.514;9.678;2022-11-15T10:09:28;39.81;38.43;42.31;;
46746;Laerm;32493;50.514;9.678;2022-11-15T10:11:36;39.73;38.36;42.41;;
46746;Laerm;32493;50.514;9.678;2022-11-15T10:13:45;39.80;38.49;43.58;;
46746;Laerm;32493;50.514;9.678;2022-11-15T10:18:27;39.68;38.25;41.58;;
46746;Laerm;32493;50.514;9.678;2022-11-15T10:20:48;39.52;37.85;41.03;;
46746;Laerm;32493;50.514;9.678;2022-11-15T10:22:56;39.45;38.00;42.03;;
46746;Laerm;32493;50.514;9.678;2022-11-15T10:25:19;39.31;38.03;40.74;;
46746;Laerm;32493;50.514;9.678;2022-11-15T10:27:24;39.22;37.61;42.79;;
46746;Laerm;32493;50.514;9.678;2022-11-15T10:29:30;39.09;37.95;40.58;;
46746;Laerm;32493;50.514;9.678;2022-11-15T10:31:41;39.09;37.08;40.51;;
46746;Laerm;32493;50.514;9.678;2022-11-15T10:33:46;39.16;37.72;42.37;;
46746;Laerm;32493;50.514;9.678;2022-11-15T10:36:19;39.14;37.77;41.37;;
46746;Laerm;32493;50.514;9.678;2022-11-15T10:38:26;38.88;37.54;40.80;;
46746;Laerm;32493;50.514;9.678;2022-11-15T10:40:31;38.63;37.09;40.10;;
46746;Laerm;32493;50.514;9.678;2022-11-15T10:42:37;38.56;37.42;40.73;;
46746;Laerm;32493;50.514;9.678;2022-11-15T10:44:44;38.53;37.18;39.99;;
46746;Laerm;32493;50.514;9.678;2022-11-15T10:47:24;38.37;37.13;40.21;;
46746;Laerm;32493;50.514;9.678;2022-11-15T10:49:35;38.29;37.16;39.52;;
46746;Laerm;32493;50.514;9.678;2022-11-15T10:51:45;38.12;36.74;39.64;;
46746;Laerm;32493;50.514;9.678;2022-11-15T10:53:52;37.81;36.31;39.53;;
46746;Laerm;32493;50.514;9.678;2022-11-15T10:56:02;37.79;36.56;38.92;;
46746;Laerm;32493;50.514;9.678;2022-11-15T10:58:31;37.83;36.58;39.34;;
46746;Laerm;32493;50.514;9.678;2022-11-15T11:00:37;37.79;36.39;38.90;;
46746;Laerm;32493;50.514;9.678;2022-11-15T11:02:58;37.81;36.46;38.95;;
46746;Laerm;32493;50.514;9.678;2022-11-15T11:05:24;37.76;36.43;38.92;;
46746;Laerm;32493;50.514;9.678;2022-11-15T11:07:32;37.79;36.37;38.93;;
46746;Laerm;32493;50.514;9.678;2022-11-15T11:09:39;37.84;36.62;39.32;;
46746;Laerm;32493;50.514;9.678;2022-11-15T11:11:47;37.85;36.55;39.18;;
46746;Laerm;32493;50.514;9.678;2022-11-15T11:13:53;37.76;36.31;39.04;;
46746;Laerm;32493;50.514;9.678;2022-11-15T11:16:20;37.73;36.41;39.01;;
46746;Laerm;32493;50.514;9.678;2022-11-15T11:18:36;38.32;36.62;40.33;;
46746;Laerm;32493;50.514;9.678;2022-11-15T11:20:49;37.92;36.70;39.45;;
46746;Laerm;32493;50.514;9.678;2022-11-15T11:23:19;37.92;36.49;39.01;;
46746;Laerm;32493;50.514;9.678;2022-11-15T11:25:35;37.92;36.74;39.12;;
46746;Laerm;32493;50.514;9.678;2022-11-15T11:30:23;38.01;36.52;41.34;;
46746;Laerm;32493;50.514;9.678;2022-11-15T11:33:05;37.96;36.63;40.43;;
46746;Laerm;32493;50.514;9.678;2022-11-15T11:35:20;38.11;36.57;39.87;;
46746;Laerm;32493;50.514;9.678;2022-11-15T11:37:34;38.11;36.70;39.97;;
46746;Laerm;32493;50.514;9.678;2022-11-15T11:39:53;38.02;36.70;39.31;;
46746;Laerm;32493;50.514;9.678;2022-11-15T11:42:23;37.96;36.61;39.22;;
46746;Laerm;32493;50.514;9.678;2022-11-15T11:44:38;37.94;36.45;39.37;;
46746;Laerm;32493;50.514;9.678;2022-11-15T11:46:51;37.94;36.68;39.69;;
46746;Laerm;32493;50.514;9.678;2022-11-15T11:49:08;37.93;36.66;39.12;;
46746;Laerm;32493;50.514;9.678;2022-11-15T11:51:21;38.07;36.66;39.96;;
46746;Laerm;32493;50.514;9.678;2022-11-15T11:53:32;37.91;36.58;39.12;;
46746;Laerm;32493;50.514;9.678;2022-11-15T11:55:45;37.87;36.58;39.17;;
46746;Laerm;32493;50.514;9.678;2022-11-15T11:58:04;37.87;36.33;39.20;;
46746;Laerm;32493;50.514;9.678;2022-11-15T12:00:18;37.83;36.51;39.19;;
46746;Laerm;32493;50.514;9.678;2022-11-15T12:02:29;37.81;36.44;39.21;;
46746;Laerm;32493;50.514;9.678;2022-11-15T12:04:40;37.84;36.54;39.18;;
46746;Laerm;32493;50.514;9.678;2022-11-15T12:06:54;37.87;36.40;39.59;;
46746;Laerm;32493;50.514;9.678;2022-11-15T12:09:11;37.82;36.43;39.09;;
46746;Laerm;32493;50.514;9.678;2022-11-15T12:11:21;37.77;36.54;38.98;;
46746;Laerm;32493;50.514;9.678;2022-11-15T12:13:30;37.86;36.52;39.52;;
46746;Laerm;32493;50.514;9.678;2022-11-15T12:15:45;37.85;36.50;39.04;;
46746;Laerm;32493;50.514;9.678;2022-11-15T12:17:53;37.80;36.41;39.03;;
46746;Laerm;32493;50.514;9.678;2022-11-15T12:20:02;37.74;36.28;38.83;;
46746;Laerm;32493;50.514;9.678;2022-11-15T12:22:21;37.74;36.48;38.96;;
46746;Laerm;32493;50.514;9.678;2022-11-15T12:24:32;37.69;36.27;38.97;;
46746;Laerm;32493;50.514;9.678;2022-11-15T12:26:41;38.05;36.48;44.22;;
46746;Laerm;32493;50.514;9.678;2022-11-15T12:28:53;37.93;36.53;39.38;;
46746;Laerm;32493;50.514;9.678;2022-11-15T12:31:14;37.97;36.61;39.12;;
46746;Laerm;32493;50.514;9.678;2022-11-15T12:33:38;37.96;36.69;39.67;;
46746;Laerm;32493;50.514;9.678;2022-11-15T12:35:58;37.83;36.51;38.93;;
46746;Laerm;32493;50.514;9.678;2022-11-15T12:38:10;37.90;36.65;39.16;;
46746;Laerm;32493;50.514;9.678;2022-11-15T12:40:36;37.95;36.66;39.21;;
46746;Laerm;32493;50.514;9.678;2022-11-15T12:42:56;38.00;36.70;39.25;;
46746;Laerm;32493;50.514;9.678;2022-11-15T12:45:03;37.98;36.38;39.23;;
46746;Laerm;32493;50.514;9.678;2022-11-15T12:47:27;38.04;36.74;39.40;;
46746;Laerm;32493;50.514;9.678;2022-11-15T12:49:53;37.99;36.72;39.30;;
46746;Laerm;32493;50.514;9.678;2022-11-15T12:52:08;38.00;36.77;39.35;;
46746;Laerm;32493;50.514;9.678;2022-11-15T12:54:57;38.06;36.75;39.36;;
46746;Laerm;32493;50.514;9.678;2022-11-15T12:57:31;38.19;36.69;39.35;;
46746;Laerm;32493;50.514;9.678;2022-11-15T12:59:49;38.19;36.84;39.50;;
46746;Laerm;32493;50.514;9.678;2022-11-15T13:02:01;38.24;36.80;39.42;;
46746;Laerm;32493;50.514;9.678;2022-11-15T13:04:14;38.40;36.98;39.95;;
46746;Laerm;32493;50.514;9.678;2022-11-15T13:06:40;38.31;36.99;39.58;;
46746;Laerm;32493;50.514;9.678;2022-11-15T13:08:49;38.32;36.72;39.84;;
46746;Laerm;32493;50.514;9.678;2022-11-15T13:10:57;38.27;36.57;39.73;;
46746;Laerm;32493;50.514;9.678;2022-11-15T13:13:04;38.20;36.98;39.54;;
46746;Laerm;32493;50.514;9.678;2022-11-15T13:17:55;38.08;36.74;39.41;;
46746;Laerm;32493;50.514;9.678;2022-11-15T13:20:27;38.01;36.64;39.23;;
46746;Laerm;32493;50.514;9.678;2022-11-15T13:22:40;38.12;36.83;39.95;;
46746;Laerm;32493;50.514;9.678;2022-11-15T13:24:56;38.06;36.70;39.34;;
46746;Laerm;32493;50.514;9.678;2022-11-15T13:27:12;38.28;36.83;43.99;;
46746;Laerm;32493;50.514;9.678;2022-11-15T13:29:20;38.09;36.80;39.35;;
46746;Laerm;32493;50.514;9.678;2022-11-15T13:31:30;37.98;36.88;39.35;;
46746;Laerm;32493;50.514;9.678;2022-11-15T13:33:39;38.02;36.69;39.21;;
46746;Laerm;32493;50.514;9.678;2022-11-15T13:35:47;37.89;36.63;39.23;;
46746;Laerm;32493;50.514;9.678;2022-11-15T13:37:56;37.88;36.44;39.27;;
46746;Laerm;32493;50.514;9.678;2022-11-15T13:40:22;37.74;36.09;38.81;;
46746;Laerm;32493;50.514;9.678;2022-11-15T13:42:32;37.77;36.32;38.95;;
46746;Laerm;32493;50.514;9.678;2022-11-15T13:44:55;37.96;36.47;39.14;;
46746;Laerm;32493;50.514;9.678;2022-11-15T13:47:03;38.08;36.42;39.50;;
46746;Laerm;32493;50.514;9.678;2022-11-15T13:49:10;38.17;36.61;39.37;;
46746;Laerm;32493;50.514;9.678;2022-11-15T13:51:24;38.19;36.80;39.80;;
46746;Laerm;32493;50.514;9.678;2022-11-15T13:53:31;38.26;36.80;39.46;;
46746;Laerm;32493;50.514;9.678;2022-11-15T13:55:37;38.31;36.96;39.66;;
46746;Laerm;32493;50.514;9.678;2022-11-15T13:57:47;38.30;36.72;39.57;;
46746;Laerm;32493;50.514;9.678;2022-11-15T13:59:55;38.40;37.08;39.80;;
46746;Laerm;32493;50.514;9.678;2022-11-15T14:02:11;38.58;37.03;40.18;;
46746;Laerm;32493;50.514;9.678;2022-11-15T14:04:20;38.49;37.07;39.71;;
46746;Laerm;32493;50.514;9.678;2022-11-15T14:06:28;38.47;37.17;39.92;;
46746;Laerm;32493;50.514;9.678;2022-11-15T14:08:35;38.55;36.99;40.14;;
46746;Laerm;32493;50.514;9.678;2022-11-15T14:10:40;38.65;37.37;39.87;;
46746;Laerm;32493;50.514;9.678;2022-11-15T14:12:52;38.80;37.48;40.20;;
46746;Laerm;32493;50.514;9.678;2022-11-15T14:14:59;38.90;37.54;40.22;;
46746;Laerm;32493;50.514;9.678;2022-11-15T14:17:19;38.90;37.59;40.02;;
46746;Laerm;32493;50.514;9.678;2022-11-15T14:19:39;38.91;37.63;40.13;;
46746;Laerm;32493;50.514;9.678;2022-11-15T14:22:11;38.79;37.54;40.20;;
46746;Laerm;32493;50.514;9.678;2022-11-15T14:24:19;38.53;37.21;39.74;;
46746;Laerm;32493;50.514;9.678;2022-11-15T14:26:30;38.47;36.93;40.99;;
46746;Laerm;32493;50.514;9.678;2022-11-15T14:28:38;38.57;37.45;39.72;;
46746;Laerm;32493;50.514;9.678;2022-11-15T14:30:45;38.66;37.15;40.01;;
46746;Laerm;32493;50.514;9.678;2022-11-15T14:32:52;38.71;37.36;39.87;;
46746;Laerm;32493;50.514;9.678;2022-11-15T14:35:01;38.74;37.50;39.89;;
46746;Laerm;32493;50.514;9.678;2022-11-15T14:37:30;38.83;37.56;40.09;;
46746;Laerm;32493;50.514;9.678;2022-11-15T14:39:37;38.86;37.42;40.21;;
46746;Laerm;32493;50.514;9.678;2022-11-15T14:41:42;38.86;37.56;40.11;;
46746;Laerm;32493;50.514;9.678;2022-11-15T14:43:51;38.98;37.58;40.27;;